createdAt,value
2022-11-21T00:00:50.630Z,100.00
2022-11-21T00:01:52.228Z,100.00
2022-11-21T00:02:54.036Z,100.00
2022-11-21T00:03:55.650Z,100.00
2022-11-21T00:04:57.357Z,100.00
2022-11-21T00:05:58.926Z,100.00
2022-11-21T00:07:00.513Z,100.00
2022-11-21T00:08:02.166Z,100.00
2022-11-21T00:09:03.801Z,100.00
2022-11-21T00:10:06.127Z,100.00
2022-11-21T00:11:07.810Z,100.00
2022-11-21T00:12:09.400Z,100.00
2022-11-21T00:13:21.181Z,100.00
2022-11-21T00:14:22.881Z,100.00
2022-11-21T00:15:26.208Z,100.00
2022-11-21T00:16:27.848Z,100.00
2022-11-21T00:17:29.463Z,100.00
2022-11-21T00:18:31.081Z,100.00
2022-11-21T00:19:33.509Z,100.00
2022-11-21T00:20:37.065Z,100.00
2022-11-21T00:21:38.645Z,100.00
2022-11-21T00:22:40.267Z,100.00
2022-11-21T00:23:43.301Z,100.00
2022-11-21T00:24:44.958Z,100.00
2022-11-21T00:25:46.580Z,100.00
2022-11-21T00:26:48.118Z,100.00
2022-11-21T00:27:49.720Z,100.00
2022-11-21T00:28:51.350Z,100.00
2022-11-21T00:29:52.889Z,100.00
2022-11-21T00:30:54.820Z,100.00
2022-11-21T00:31:56.387Z,100.00
2022-11-21T00:33:01.214Z,100.00
2022-11-21T00:34:02.792Z,100.00
2022-11-21T00:35:05.272Z,100.00
2022-11-21T00:36:08.925Z,100.00
2022-11-21T00:37:10.440Z,100.00
2022-11-21T00:38:11.991Z,100.00
2022-11-21T00:39:13.591Z,100.00
2022-11-21T00:40:15.657Z,100.00
2022-11-21T00:41:17.424Z,100.00
2022-11-21T00:42:19.275Z,100.00
2022-11-21T00:43:20.884Z,100.00
2022-11-21T00:44:22.508Z,100.00
2022-11-21T00:45:24.726Z,100.00
2022-11-21T00:46:26.493Z,100.00
2022-11-21T00:47:28.054Z,100.00
2022-11-21T00:48:31.028Z,100.00
2022-11-21T00:49:32.593Z,100.00
2022-11-21T00:50:34.246Z,100.00
2022-11-21T00:51:35.902Z,100.00
2022-11-21T00:52:37.509Z,100.00
2022-11-21T00:53:39.008Z,100.00
2022-11-21T00:54:40.811Z,100.00
2022-11-21T00:55:42.698Z,100.00
2022-11-21T00:56:44.277Z,100.00
2022-11-21T00:57:45.938Z,100.00
2022-11-21T00:58:47.637Z,100.00
2022-11-21T00:59:49.136Z,100.00
2022-11-21T01:00:50.988Z,100.00
2022-11-21T01:01:52.724Z,100.00
2022-11-21T01:02:54.225Z,100.00
2022-11-21T01:03:57.254Z,100.00
2022-11-21T01:04:58.862Z,100.00
2022-11-21T01:06:05.379Z,100.00
2022-11-21T01:07:06.992Z,100.00
2022-11-21T01:08:08.669Z,100.00
2022-11-21T01:09:10.390Z,100.00
2022-11-21T01:10:12.221Z,100.00
2022-11-21T01:11:16.771Z,100.00
2022-11-21T01:12:18.379Z,100.00
2022-11-21T01:13:19.965Z,100.00
2022-11-21T01:14:21.548Z,100.00
2022-11-21T01:15:23.325Z,100.00
2022-11-21T01:16:27.363Z,100.00
2022-11-21T01:17:28.990Z,100.00
2022-11-21T01:18:30.540Z,100.00
2022-11-21T01:19:32.207Z,100.00
2022-11-21T01:20:33.779Z,100.00
2022-11-21T01:21:35.401Z,100.00
2022-11-21T01:22:37.000Z,100.00
2022-11-21T01:23:38.605Z,100.00
2022-11-21T01:24:40.203Z,100.00
2022-11-21T01:25:41.744Z,100.00
2022-11-21T01:26:43.356Z,100.00
2022-11-21T01:27:44.865Z,100.00
2022-11-21T01:28:46.764Z,100.00
2022-11-21T01:29:48.336Z,100.00
2022-11-21T01:30:49.875Z,100.00
2022-11-21T01:31:51.467Z,100.00
2022-11-21T01:32:53.191Z,100.00
2022-11-21T01:33:56.766Z,100.00
2022-11-21T01:34:58.341Z,100.00
2022-11-21T01:36:11.429Z,100.00
2022-11-21T01:37:13.157Z,100.00
2022-11-21T01:38:14.801Z,100.00
2022-11-21T01:39:16.317Z,100.00
2022-11-21T01:40:18.005Z,100.00
2022-11-21T01:41:22.780Z,100.00
2022-11-21T01:42:24.454Z,100.00
2022-11-21T01:43:26.175Z,100.00
2022-11-21T01:44:47.789Z,100.00
2022-11-21T01:45:59.721Z,100.00
2022-11-21T01:47:01.421Z,100.00
2022-11-21T01:48:03.005Z,100.00
2022-11-21T01:49:23.753Z,100.00
2022-11-21T01:50:25.438Z,100.00
2022-11-21T01:51:39.039Z,100.00
2022-11-21T01:52:40.815Z,100.00
2022-11-21T01:53:45.887Z,100.00
2022-11-21T01:54:56.736Z,100.00
2022-11-21T01:55:58.523Z,100.00
2022-11-21T01:57:19.208Z,100.00
2022-11-21T01:58:22.881Z,100.00
2022-11-21T01:59:55.286Z,100.00
2022-11-21T02:00:56.982Z,100.00
2022-11-21T02:02:02.222Z,100.00
2022-11-21T02:03:10.451Z,100.00
2022-11-21T02:04:12.136Z,100.00
2022-11-21T02:05:19.115Z,100.00
2022-11-21T02:06:20.907Z,100.00
2022-11-21T02:07:24.683Z,100.00
2022-11-21T02:08:27.411Z,100.00
2022-11-21T02:09:31.749Z,100.00
2022-11-21T02:10:36.728Z,100.00
2022-11-21T02:11:42.327Z,100.00
2022-11-21T02:12:51.074Z,100.00
2022-11-21T02:13:53.187Z,100.00
2022-11-21T02:14:55.659Z,100.00
2022-11-21T02:15:57.936Z,100.00
2022-11-21T02:17:05.829Z,100.00
2022-11-21T02:18:09.928Z,100.00
2022-11-21T02:19:24.403Z,100.00
2022-11-21T02:20:28.962Z,100.00
2022-11-21T02:21:52.869Z,100.00
2022-11-21T02:23:03.783Z,100.00
2022-11-21T02:24:20.208Z,100.00
2022-11-21T02:25:28.184Z,100.00
2022-11-21T02:26:30.567Z,100.00
2022-11-21T02:27:32.539Z,100.00
2022-11-21T02:28:34.332Z,100.00
2022-11-21T02:29:36.033Z,100.00
2022-11-21T02:30:40.410Z,100.00
2022-11-21T02:31:42.002Z,100.00
2022-11-21T02:32:48.771Z,100.00
2022-11-21T02:33:50.322Z,100.00
2022-11-21T02:34:51.894Z,100.00
2022-11-21T02:35:58.174Z,100.00
2022-11-21T02:37:00.463Z,100.00
2022-11-21T02:38:22.452Z,100.00
2022-11-21T02:39:32.202Z,100.00
2022-11-21T02:40:41.523Z,100.00
2022-11-21T02:41:59.237Z,100.00
2022-11-21T02:43:24.515Z,100.00
2022-11-21T02:44:36.736Z,100.00
2022-11-21T02:45:41.072Z,100.00
2022-11-21T02:46:49.016Z,100.00
2022-11-21T02:47:56.169Z,100.00
2022-11-21T02:49:06.537Z,100.00
2022-11-21T02:50:19.397Z,100.00
2022-11-21T02:51:20.986Z,100.00
2022-11-21T02:52:22.890Z,100.00
2022-11-21T02:53:24.511Z,100.00
2022-11-21T02:54:26.506Z,100.00
2022-11-21T02:55:28.612Z,100.00
2022-11-21T02:56:30.181Z,100.00
2022-11-21T02:57:32.543Z,100.00
2022-11-21T02:58:34.080Z,100.00
2022-11-21T02:59:35.700Z,100.00
2022-11-21T03:00:40.332Z,100.00
2022-11-21T03:01:42.134Z,100.00
2022-11-21T03:02:43.737Z,100.00
2022-11-21T03:03:45.288Z,100.00
2022-11-21T03:04:46.922Z,100.00
2022-11-21T03:05:48.809Z,100.00
2022-11-21T03:06:50.406Z,100.00
2022-11-21T03:07:52.144Z,100.00
2022-11-21T03:08:53.720Z,100.00
2022-11-21T03:09:55.320Z,100.00
2022-11-21T03:10:56.981Z,100.00
2022-11-21T03:11:58.547Z,100.00
2022-11-21T03:13:03.221Z,100.00
2022-11-21T03:14:04.791Z,100.00
2022-11-21T03:15:09.067Z,100.00
2022-11-21T03:16:11.090Z,100.00
2022-11-21T03:17:12.692Z,100.00
2022-11-21T03:18:14.428Z,100.00
2022-11-21T03:19:16.030Z,100.00
2022-11-21T03:20:17.704Z,100.00
2022-11-21T03:21:19.353Z,100.00
2022-11-21T03:22:20.907Z,100.00
2022-11-21T03:23:22.593Z,100.00
2022-11-21T03:24:24.188Z,100.00
2022-11-21T03:25:26.148Z,100.00
2022-11-21T03:26:28.228Z,100.00
2022-11-21T03:27:29.851Z,100.00
2022-11-21T03:28:31.545Z,100.00
2022-11-21T03:29:33.154Z,100.00
2022-11-21T03:30:34.790Z,100.00
2022-11-21T03:31:36.425Z,100.00
2022-11-21T03:32:37.971Z,100.00
2022-11-21T03:33:39.643Z,100.00
2022-11-21T03:34:41.388Z,100.00
2022-11-21T03:35:43.034Z,100.00
2022-11-21T03:36:44.609Z,100.00
2022-11-21T03:37:48.462Z,100.00
2022-11-21T03:38:50.116Z,100.00
2022-11-21T03:39:51.683Z,100.00
2022-11-21T03:40:53.243Z,100.00
2022-11-21T03:41:55.038Z,100.00
2022-11-21T03:42:56.574Z,100.00
2022-11-21T03:44:04.150Z,100.00
2022-11-21T03:45:06.343Z,100.00
2022-11-21T03:46:07.870Z,100.00
2022-11-21T03:47:09.467Z,100.00
2022-11-21T03:48:11.024Z,100.00
2022-11-21T03:49:14.178Z,100.00
2022-11-21T03:50:18.949Z,100.00
2022-11-21T03:51:20.826Z,100.00
2022-11-21T03:52:22.750Z,100.00
2022-11-21T03:53:24.330Z,100.00
2022-11-21T03:54:26.394Z,100.00
2022-11-21T03:55:28.762Z,100.00
2022-11-21T03:56:30.891Z,100.00
2022-11-21T03:57:32.522Z,100.00
2022-11-21T03:58:34.107Z,100.00
2022-11-21T03:59:35.707Z,100.00
2022-11-21T04:00:37.274Z,100.00
2022-11-21T04:01:39.171Z,100.00
2022-11-21T04:02:41.077Z,100.00
2022-11-21T04:03:43.439Z,100.00
2022-11-21T04:04:45.072Z,100.00
2022-11-21T04:05:46.718Z,100.00
2022-11-21T04:06:48.309Z,100.00
2022-11-21T04:07:49.923Z,100.00
2022-11-21T04:08:51.927Z,100.00
2022-11-21T04:09:53.609Z,100.00
2022-11-21T04:10:55.540Z,100.00
2022-11-21T04:11:57.199Z,100.00
2022-11-21T04:12:58.803Z,100.00
2022-11-21T04:14:00.403Z,100.00
2022-11-21T04:15:02.009Z,100.00
2022-11-21T04:16:03.759Z,100.00
2022-11-21T04:17:05.400Z,100.00
2022-11-21T04:18:07.071Z,100.00
2022-11-21T04:19:08.755Z,100.00
2022-11-21T04:20:11.095Z,100.00
2022-11-21T04:21:12.940Z,100.00
2022-11-21T04:22:14.599Z,100.00
2022-11-21T04:23:16.251Z,100.00
2022-11-21T04:24:17.866Z,100.00
2022-11-21T04:25:19.676Z,100.00
2022-11-21T04:26:21.455Z,100.00
2022-11-21T04:27:23.102Z,100.00
2022-11-21T04:28:24.800Z,100.00
2022-11-21T04:29:26.435Z,100.00
2022-11-21T04:30:28.912Z,100.00
2022-11-21T04:31:30.677Z,100.00
2022-11-21T04:32:32.462Z,100.00
2022-11-21T04:33:34.336Z,100.00
2022-11-21T04:34:35.945Z,100.00
2022-11-21T04:35:37.678Z,100.00
2022-11-21T04:36:39.359Z,100.00
2022-11-21T04:37:40.994Z,100.00
2022-11-21T04:38:42.624Z,100.00
2022-11-21T04:39:44.233Z,100.00
2022-11-21T04:40:45.798Z,100.00
2022-11-21T04:41:47.484Z,100.00
2022-11-21T04:42:49.399Z,100.00
2022-11-21T04:43:51.098Z,100.00
2022-11-21T04:44:52.697Z,100.00
2022-11-21T04:45:54.290Z,100.00
2022-11-21T04:46:55.896Z,100.00
2022-11-21T04:47:57.861Z,100.00
2022-11-21T04:48:59.456Z,100.00
2022-11-21T04:50:01.008Z,100.00
2022-11-21T04:51:02.594Z,100.00
2022-11-21T04:52:04.427Z,100.00
2022-11-21T04:53:06.138Z,100.00
2022-11-21T04:54:07.682Z,100.00
2022-11-21T04:55:09.637Z,100.00
2022-11-21T04:56:11.305Z,100.00
2022-11-21T04:57:12.865Z,100.00
2022-11-21T04:58:14.636Z,100.00
2022-11-21T04:59:16.272Z,100.00
2022-11-21T05:00:23.919Z,100.00
2022-11-21T05:01:26.145Z,100.00
2022-11-21T05:02:27.830Z,100.00
2022-11-21T05:03:29.461Z,100.00
2022-11-21T05:04:31.123Z,100.00
2022-11-21T05:05:33.321Z,100.00
2022-11-21T05:06:34.922Z,100.00
2022-11-21T05:07:36.760Z,100.00
2022-11-21T05:08:38.428Z,100.00
2022-11-21T05:09:40.050Z,100.00
2022-11-21T05:11:02.307Z,100.00
2022-11-21T05:12:23.002Z,100.00
2022-11-21T05:13:25.054Z,100.00
2022-11-21T05:14:27.243Z,100.00
2022-11-21T05:15:29.035Z,100.00
2022-11-21T05:16:32.837Z,100.00
2022-11-21T05:17:34.476Z,100.00
2022-11-21T05:18:36.119Z,100.00
2022-11-21T05:19:37.775Z,100.00
2022-11-21T05:20:39.520Z,100.00
2022-11-21T05:21:41.131Z,100.00
2022-11-21T05:22:42.735Z,100.00
2022-11-21T05:23:44.310Z,100.00
2022-11-21T05:24:45.941Z,100.00
2022-11-21T05:25:47.504Z,100.00
2022-11-21T05:26:49.123Z,100.00
2022-11-21T05:27:50.926Z,100.00
2022-11-21T05:28:52.521Z,100.00
2022-11-21T05:29:55.402Z,100.00
2022-11-21T05:30:57.010Z,100.00
2022-11-21T05:31:58.629Z,100.00
2022-11-21T05:33:00.467Z,100.00
2022-11-21T05:34:01.998Z,100.00
2022-11-21T05:35:03.845Z,100.00
2022-11-21T05:36:05.502Z,100.00
2022-11-21T05:37:07.241Z,100.00
2022-11-21T05:38:08.861Z,100.00
2022-11-21T05:39:10.433Z,100.00
2022-11-21T05:40:12.316Z,100.00
2022-11-21T05:41:13.947Z,100.00
2022-11-21T05:42:15.576Z,100.00
2022-11-21T05:43:35.488Z,100.00
2022-11-21T05:44:37.068Z,100.00
2022-11-21T05:45:38.721Z,100.00
2022-11-21T05:46:40.573Z,100.00
2022-11-21T05:47:42.345Z,100.00
2022-11-21T05:48:44.202Z,100.00
2022-11-21T05:49:45.965Z,100.00
2022-11-21T05:50:49.586Z,100.00
2022-11-21T05:51:51.296Z,100.00
2022-11-21T05:52:53.015Z,100.00
2022-11-21T05:53:54.622Z,100.00
2022-11-21T05:54:56.212Z,100.00
2022-11-21T05:56:03.848Z,100.00
2022-11-21T05:57:05.529Z,100.00
2022-11-21T05:58:09.034Z,100.00
2022-11-21T05:59:11.108Z,100.00
2022-11-21T06:00:13.357Z,100.00
2022-11-21T06:01:15.430Z,100.00
2022-11-21T06:02:35.469Z,100.00
2022-11-21T06:03:40.466Z,100.00
2022-11-21T06:04:42.054Z,100.00
2022-11-21T06:05:43.677Z,100.00
2022-11-21T06:06:45.303Z,100.00
2022-11-21T06:07:46.972Z,100.00
2022-11-21T06:08:48.615Z,100.00
2022-11-21T06:09:50.199Z,100.00
2022-11-21T06:10:51.785Z,100.00
2022-11-21T06:11:53.492Z,100.00
2022-11-21T06:12:55.072Z,100.00
2022-11-21T06:13:56.888Z,100.00
2022-11-21T06:14:58.600Z,100.00
2022-11-21T06:16:00.156Z,100.00
2022-11-21T06:17:01.687Z,100.00
2022-11-21T06:18:03.294Z,100.00
2022-11-21T06:19:04.923Z,100.00
2022-11-21T06:20:07.246Z,100.00
2022-11-21T06:21:17.401Z,100.00
2022-11-21T06:22:18.935Z,100.00
2022-11-21T06:23:20.730Z,100.00
2022-11-21T06:24:22.579Z,100.00
2022-11-21T06:25:24.208Z,100.00
2022-11-21T06:26:27.575Z,100.00
2022-11-21T06:27:29.941Z,100.00
2022-11-21T06:28:35.610Z,100.00
2022-11-21T06:29:37.293Z,100.00
2022-11-21T06:30:39.156Z,100.00
2022-11-21T06:31:40.935Z,100.00
2022-11-21T06:32:42.569Z,100.00
2022-11-21T06:33:45.177Z,100.00
2022-11-21T06:34:46.836Z,100.00
2022-11-21T06:35:48.474Z,100.00
2022-11-21T06:36:50.775Z,100.00
2022-11-21T06:37:53.836Z,100.00
2022-11-21T06:38:56.326Z,100.00
2022-11-21T06:39:57.923Z,100.00
2022-11-21T06:41:20.308Z,100.00
2022-11-21T06:42:21.819Z,100.00
2022-11-21T06:43:23.480Z,100.00
2022-11-21T06:44:25.102Z,100.00
2022-11-21T06:45:27.021Z,100.00
2022-11-21T06:46:29.043Z,100.00
2022-11-21T06:47:34.877Z,100.00
2022-11-21T06:48:37.639Z,100.00
2022-11-21T06:49:39.320Z,100.00
2022-11-21T06:50:41.094Z,100.00
2022-11-21T06:51:42.732Z,100.00
2022-11-21T06:52:44.432Z,100.00
2022-11-21T06:53:48.111Z,100.00
2022-11-21T06:54:49.676Z,100.00
2022-11-21T06:55:51.309Z,100.00
2022-11-21T06:56:53.875Z,100.00
2022-11-21T06:57:59.051Z,100.00
2022-11-21T06:59:00.610Z,100.00
2022-11-21T07:00:02.445Z,100.00
2022-11-21T07:01:08.671Z,100.00
2022-11-21T07:02:13.707Z,100.00
2022-11-21T07:03:15.540Z,100.00
2022-11-21T07:04:17.201Z,100.00
2022-11-21T07:05:18.822Z,100.00
2022-11-21T07:06:20.678Z,100.00
2022-11-21T07:07:22.413Z,100.00
2022-11-21T07:08:24.029Z,100.00
2022-11-21T07:09:33.401Z,100.00
2022-11-21T07:10:35.532Z,100.00
2022-11-21T07:11:37.137Z,100.00
2022-11-21T07:12:57.488Z,100.00
2022-11-21T07:13:59.080Z,100.00
2022-11-21T07:15:00.573Z,100.00
2022-11-21T07:16:08.045Z,100.00
2022-11-21T07:17:14.682Z,100.00
2022-11-21T07:18:16.497Z,100.00
2022-11-21T07:19:18.142Z,100.00
2022-11-21T07:20:19.874Z,100.00
2022-11-21T07:21:21.523Z,100.00
2022-11-21T07:22:23.107Z,100.00
2022-11-21T07:23:24.726Z,100.00
2022-11-21T07:24:26.320Z,100.00
2022-11-21T07:25:30.312Z,100.00
2022-11-21T07:26:35.378Z,100.00
2022-11-21T07:27:36.921Z,100.00
2022-11-21T07:28:38.789Z,100.00
2022-11-21T07:29:40.432Z,100.00
2022-11-21T07:30:42.051Z,100.00
2022-11-21T07:31:43.589Z,100.00
2022-11-21T07:32:45.170Z,100.00
2022-11-21T07:33:47.919Z,100.00
2022-11-21T07:34:49.507Z,100.00
2022-11-21T07:35:51.421Z,100.00
2022-11-21T07:36:52.934Z,100.00
2022-11-21T07:37:54.811Z,100.00
2022-11-21T07:38:56.405Z,100.00
2022-11-21T07:39:58.069Z,100.00
2022-11-21T07:40:59.729Z,100.00
2022-11-21T07:42:01.379Z,100.00
2022-11-21T07:43:09.572Z,100.00
2022-11-21T07:44:12.549Z,100.00
2022-11-21T07:45:15.014Z,100.00
2022-11-21T07:46:16.636Z,100.00
2022-11-21T07:47:18.388Z,100.00
2022-11-21T07:48:20.175Z,100.00
2022-11-21T07:49:22.329Z,100.00
2022-11-21T07:50:23.909Z,100.00
2022-11-21T07:51:25.562Z,100.00
2022-11-21T07:52:30.115Z,100.00
2022-11-21T07:53:31.868Z,100.00
2022-11-21T07:54:33.527Z,100.00
2022-11-21T07:55:40.181Z,100.00
2022-11-21T07:56:42.400Z,100.00
2022-11-21T07:57:43.927Z,100.00
2022-11-21T07:58:45.793Z,100.00
2022-11-21T07:59:47.388Z,100.00
2022-11-21T08:00:49.093Z,100.00
2022-11-21T08:01:51.789Z,100.00
2022-11-21T08:02:53.632Z,100.00
2022-11-21T08:03:55.250Z,100.00
2022-11-21T08:04:56.911Z,100.00
2022-11-21T08:06:03.198Z,100.00
2022-11-21T08:07:04.954Z,100.00
2022-11-21T08:08:07.617Z,100.00
2022-11-21T08:09:09.397Z,100.00
2022-11-21T08:10:11.141Z,100.00
2022-11-21T08:11:12.785Z,100.00
2022-11-21T08:12:15.405Z,100.00
2022-11-21T08:13:16.937Z,100.00
2022-11-21T08:14:18.485Z,100.00
2022-11-21T08:15:20.268Z,99.86
2022-11-21T08:16:23.278Z,98.37
2022-11-21T08:17:27.789Z,96.21
2022-11-21T08:18:29.629Z,93.74
2022-11-21T08:19:31.687Z,95.01
2022-11-21T08:20:33.248Z,95.14
2022-11-21T08:21:34.929Z,91.80
2022-11-21T08:22:41.264Z,91.16
2022-11-21T08:23:42.862Z,92.37
2022-11-21T08:24:44.645Z,93.05
2022-11-21T08:25:46.391Z,93.26
2022-11-21T08:26:48.256Z,94.71
2022-11-21T08:27:49.814Z,96.50
2022-11-21T08:28:55.566Z,97.17
2022-11-21T08:30:00.337Z,99.68
2022-11-21T08:31:06.116Z,100.00
2022-11-21T08:32:07.865Z,100.00
2022-11-21T08:33:09.539Z,100.00
2022-11-21T08:34:14.628Z,100.00
2022-11-21T08:35:16.569Z,100.00
2022-11-21T08:36:18.233Z,100.00
2022-11-21T08:37:20.252Z,100.00
2022-11-21T08:38:21.873Z,100.00
2022-11-21T08:39:23.547Z,100.00
2022-11-21T08:40:26.881Z,100.00
2022-11-21T08:41:48.202Z,100.00
2022-11-21T08:42:59.417Z,100.00
2022-11-21T08:44:01.020Z,100.00
2022-11-21T08:45:02.730Z,100.00
2022-11-21T08:46:04.394Z,100.00
2022-11-21T08:47:06.616Z,100.00
2022-11-21T08:48:12.072Z,100.00
2022-11-21T08:49:13.829Z,100.00
2022-11-21T08:50:15.746Z,100.00
2022-11-21T08:51:17.302Z,100.00
2022-11-21T08:52:18.912Z,100.00
2022-11-21T08:53:20.474Z,100.00
2022-11-21T08:54:23.896Z,100.00
2022-11-21T08:55:25.533Z,100.00
2022-11-21T08:56:28.191Z,100.00
2022-11-21T08:57:31.440Z,100.00
2022-11-21T08:58:33.102Z,100.00
2022-11-21T08:59:34.857Z,100.00
2022-11-21T09:00:37.768Z,100.00
2022-11-21T09:01:39.585Z,100.00
2022-11-21T09:02:41.449Z,100.00
2022-11-21T09:03:43.219Z,100.00
2022-11-21T09:04:44.924Z,100.00
2022-11-21T09:05:46.757Z,100.00
2022-11-21T09:06:48.411Z,98.50
2022-11-21T09:07:57.451Z,96.77
2022-11-21T09:08:59.089Z,90.58
2022-11-21T09:10:00.731Z,79.92
2022-11-21T09:11:07.373Z,79.91
2022-11-21T09:12:09.208Z,75.65
2022-11-21T09:13:10.960Z,77.19
2022-11-21T09:14:30.998Z,78.79
2022-11-21T09:15:51.400Z,84.13
2022-11-21T09:17:11.583Z,84.07
2022-11-21T09:18:13.479Z,87.54
2022-11-21T09:19:15.123Z,87.88
2022-11-21T09:20:17.028Z,80.71
2022-11-21T09:21:20.468Z,79.41
2022-11-21T09:22:24.264Z,77.48
2022-11-21T09:23:26.337Z,75.68
2022-11-21T09:24:28.349Z,71.75
2022-11-21T09:25:29.918Z,67.35
2022-11-21T09:26:31.560Z,61.38
2022-11-21T09:27:33.225Z,61.10
2022-11-21T09:28:35.986Z,57.27
2022-11-21T09:29:37.530Z,54.39
2022-11-21T09:30:40.411Z,56.31
2022-11-21T09:31:42.608Z,50.59
2022-11-21T09:32:44.219Z,52.42
2022-11-21T09:33:47.091Z,54.65
2022-11-21T09:34:50.376Z,50.77
2022-11-21T09:35:52.105Z,51.93
2022-11-21T09:36:54.555Z,51.64
2022-11-21T09:37:56.376Z,53.30
2022-11-21T09:38:58.169Z,55.14
2022-11-21T09:40:00.222Z,52.70
2022-11-21T09:41:54.496Z,53.33
2022-11-21T09:43:55.517Z,53.15
2022-11-21T09:45:41.821Z,52.56
2022-11-21T09:46:47.591Z,48.84
2022-11-21T09:47:51.741Z,50.43
2022-11-21T09:49:00.468Z,49.07
2022-11-21T09:50:24.039Z,48.73
2022-11-21T09:51:30.855Z,48.03
2022-11-21T09:52:41.126Z,49.34
2022-11-21T09:53:53.344Z,46.37
2022-11-21T09:55:02.139Z,44.91
2022-11-21T09:56:13.036Z,45.60
2022-11-21T09:57:21.445Z,44.61
2022-11-21T09:58:35.316Z,44.95
2022-11-21T09:59:39.219Z,43.67
2022-11-21T10:00:40.961Z,44.47
2022-11-21T10:01:42.595Z,40.28
2022-11-21T10:02:44.523Z,38.49
2022-11-21T10:03:48.419Z,39.12
2022-11-21T10:04:52.143Z,40.94
2022-11-21T10:06:12.726Z,43.82
2022-11-21T10:07:17.759Z,45.82
2022-11-21T10:08:43.037Z,47.71
2022-11-21T10:10:20.316Z,47.86
2022-11-21T10:12:10.372Z,47.84
2022-11-21T10:13:38.336Z,47.95
2022-11-21T10:15:12.011Z,48.55
2022-11-21T10:16:19.183Z,50.15
2022-11-21T10:17:36.295Z,49.16
2022-11-21T10:19:01.437Z,48.08
2022-11-21T10:20:24.769Z,46.06
2022-11-21T10:21:43.885Z,47.19
2022-11-21T10:23:19.470Z,48.01
2022-11-21T10:24:40.792Z,47.56
2022-11-21T10:25:55.312Z,48.18
2022-11-21T10:27:03.683Z,48.77
2022-11-21T10:28:23.423Z,46.89
2022-11-21T10:29:32.933Z,47.18
2022-11-21T10:30:35.817Z,47.68
2022-11-21T10:31:41.407Z,44.63
2022-11-21T10:32:51.538Z,46.05
2022-11-21T10:33:56.714Z,45.18
2022-11-21T10:35:03.630Z,44.19
2022-11-21T10:36:28.450Z,45.01
2022-11-21T10:37:40.500Z,45.27
2022-11-21T10:38:44.442Z,45.85
2022-11-21T10:39:51.269Z,46.39
2022-11-21T10:40:55.998Z,45.50
2022-11-21T10:42:18.112Z,45.37
2022-11-21T10:43:42.011Z,44.18
2022-11-21T10:45:02.805Z,43.73
2022-11-21T10:46:04.553Z,43.05
2022-11-21T10:47:16.916Z,44.32
2022-11-21T10:48:19.090Z,44.54
2022-11-21T10:49:20.763Z,45.34
2022-11-21T10:50:31.458Z,46.25
2022-11-21T10:52:02.021Z,46.87
2022-11-21T10:53:38.407Z,48.24
2022-11-21T10:55:18.691Z,47.65
2022-11-21T10:56:23.736Z,49.19
2022-11-21T10:57:29.901Z,48.46
2022-11-21T10:58:43.557Z,50.75
2022-11-21T11:00:13.294Z,51.34
2022-11-21T11:01:25.376Z,49.72
2022-11-21T11:02:27.766Z,46.33
2022-11-21T11:03:31.690Z,46.62
2022-11-21T11:04:42.876Z,43.79
2022-11-21T11:05:59.756Z,44.70
2022-11-21T11:07:21.586Z,48.04
2022-11-21T11:08:23.406Z,47.96
2022-11-21T11:09:31.317Z,49.50
2022-11-21T11:10:38.718Z,49.16
2022-11-21T11:11:40.416Z,50.10
2022-11-21T11:13:02.068Z,50.01
2022-11-21T11:14:13.695Z,50.80
2022-11-21T11:15:24.995Z,52.08
2022-11-21T11:16:28.697Z,53.81
2022-11-21T11:17:32.954Z,54.79
2022-11-21T11:18:37.647Z,56.54
2022-11-21T11:19:40.561Z,53.01
2022-11-21T11:20:45.127Z,50.79
2022-11-21T11:21:47.867Z,50.56
2022-11-21T11:22:49.568Z,49.58
2022-11-21T11:23:53.007Z,48.45
2022-11-21T11:24:59.067Z,44.63
2022-11-21T11:26:02.280Z,43.80
2022-11-21T11:27:04.020Z,42.37
2022-11-21T11:28:09.201Z,41.17
2022-11-21T11:29:14.423Z,40.24
2022-11-21T11:30:18.242Z,40.70
2022-11-21T11:31:20.130Z,42.30
2022-11-21T11:32:22.711Z,42.77
2022-11-21T11:33:39.662Z,44.21
2022-11-21T11:35:05.786Z,44.69
2022-11-21T11:36:10.365Z,48.49
2022-11-21T11:37:28.547Z,49.18
2022-11-21T11:38:31.273Z,50.56
2022-11-21T11:39:57.856Z,51.43
2022-11-21T11:41:05.743Z,52.60
2022-11-21T11:42:48.091Z,52.49
2022-11-21T11:44:34.421Z,53.67
2022-11-21T11:46:09.975Z,50.73
2022-11-21T11:47:33.381Z,51.88
2022-11-21T11:49:03.254Z,51.96
2022-11-21T11:50:25.135Z,48.56
2022-11-21T11:51:47.890Z,45.84
2022-11-21T11:53:16.164Z,47.38
2022-11-21T11:54:32.626Z,49.35
2022-11-21T11:55:42.086Z,49.56
2022-11-21T11:56:47.010Z,49.38
2022-11-21T11:57:52.937Z,49.82
2022-11-21T11:59:04.424Z,48.17
2022-11-21T12:00:27.155Z,48.10
2022-11-21T12:01:44.599Z,50.08
2022-11-21T12:02:58.191Z,50.45
2022-11-21T12:04:10.815Z,50.87
2022-11-21T12:05:24.917Z,53.99
2022-11-21T12:06:57.321Z,53.33
2022-11-21T12:08:44.602Z,52.54
2022-11-21T12:09:46.396Z,53.41
2022-11-21T12:11:42.171Z,53.10
2022-11-21T12:12:55.000Z,56.59
2022-11-21T12:13:58.086Z,55.51
2022-11-21T12:15:40.375Z,56.40
2022-11-21T12:16:42.547Z,56.62
2022-11-21T12:18:02.934Z,55.35
2022-11-21T12:19:12.969Z,55.00
2022-11-21T12:20:20.666Z,55.51
2022-11-21T12:21:23.613Z,56.66
2022-11-21T12:22:25.321Z,59.14
2022-11-21T12:23:49.676Z,59.25
2022-11-21T12:24:51.692Z,59.42
2022-11-21T12:25:58.990Z,59.85
2022-11-21T12:27:12.768Z,60.35
2022-11-21T12:28:47.117Z,59.22
2022-11-21T12:30:04.891Z,60.51
2022-11-21T12:31:11.679Z,58.76
2022-11-21T12:32:41.168Z,59.89
2022-11-21T12:33:57.541Z,60.80
2022-11-21T12:35:01.850Z,59.92
2022-11-21T12:36:17.307Z,59.08
2022-11-21T12:37:54.312Z,59.20
2022-11-21T12:39:20.148Z,56.41
2022-11-21T12:40:51.012Z,55.05
2022-11-21T12:42:37.237Z,60.48
2022-11-21T12:43:57.637Z,57.22
2022-11-21T12:45:19.692Z,57.40
2022-11-21T12:46:45.279Z,57.59
2022-11-21T12:48:23.461Z,58.02
2022-11-21T12:49:54.552Z,58.77
2022-11-21T12:51:31.299Z,59.12
2022-11-21T12:53:08.696Z,60.26
2022-11-21T12:54:33.392Z,59.88
2022-11-21T12:55:39.992Z,60.23
2022-11-21T12:56:47.721Z,61.89
2022-11-21T12:58:13.393Z,61.82
2022-11-21T12:59:15.685Z,61.93
2022-11-21T13:00:39.552Z,60.04
2022-11-21T13:02:01.720Z,61.23
2022-11-21T13:03:19.291Z,59.51
2022-11-21T13:04:28.413Z,60.48
2022-11-21T13:05:37.204Z,60.50
2022-11-21T13:06:42.225Z,61.24
2022-11-21T13:07:45.613Z,62.88
2022-11-21T13:08:49.247Z,63.02
2022-11-21T13:09:55.401Z,62.27
2022-11-21T13:11:46.592Z,62.36
2022-11-21T13:12:54.367Z,62.10
2022-11-21T13:14:04.801Z,63.00
2022-11-21T13:15:19.535Z,63.28
2022-11-21T13:16:39.843Z,60.09
2022-11-21T13:17:54.288Z,62.35
2022-11-21T13:18:56.283Z,61.29
2022-11-21T13:20:06.509Z,61.38
2022-11-21T13:21:44.462Z,61.81
2022-11-21T13:22:47.248Z,63.60
2022-11-21T13:23:49.069Z,62.37
2022-11-21T13:24:56.267Z,64.54
2022-11-21T13:25:58.016Z,64.73
2022-11-21T13:26:59.889Z,64.94
2022-11-21T13:28:13.590Z,67.10
2022-11-21T13:29:15.844Z,68.48
2022-11-21T13:30:19.116Z,69.11
2022-11-21T13:31:28.350Z,69.88
2022-11-21T13:32:49.774Z,72.43
2022-11-21T13:33:52.418Z,72.59
2022-11-21T13:34:54.224Z,72.69
2022-11-21T13:35:56.486Z,73.40
2022-11-21T13:36:58.793Z,74.12
2022-11-21T13:38:06.994Z,74.62
2022-11-21T13:39:17.596Z,75.26
2022-11-21T13:40:29.925Z,75.77
2022-11-21T13:41:53.393Z,73.99
2022-11-21T13:43:34.479Z,73.46
2022-11-21T13:44:40.729Z,73.39
2022-11-21T13:45:56.462Z,73.04
2022-11-21T13:47:14.858Z,73.20
2022-11-21T13:48:28.467Z,69.48
2022-11-21T13:49:48.847Z,68.80
2022-11-21T13:51:12.010Z,68.26
2022-11-21T13:52:19.721Z,69.03
2022-11-21T13:53:45.989Z,69.33
2022-11-21T13:54:56.666Z,69.56
2022-11-21T13:56:28.850Z,68.65
2022-11-21T13:57:59.879Z,70.11
2022-11-21T13:59:22.994Z,68.24